createdAt,value
2018-09-30T00:00:23.693Z,101253.38
2018-09-30T00:01:27.145Z,101247.10
2018-09-30T00:02:30.583Z,101248.65
2018-09-30T00:03:33.991Z,101250.16
2018-09-30T00:04:37.413Z,101250.03
2018-09-30T00:05:41.016Z,101249.14
2018-09-30T00:06:44.485Z,101250.28
2018-09-30T00:07:47.927Z,101250.20
2018-09-30T00:08:51.382Z,101253.16
2018-09-30T00:09:54.872Z,101247.81
2018-09-30T00:10:58.352Z,101245.78
2018-09-30T00:12:02.918Z,101247.41
2018-09-30T00:13:06.413Z,101242.12
2018-09-30T00:14:09.880Z,101248.45
2018-09-30T00:15:13.360Z,101243.99
2018-09-30T00:16:16.867Z,101241.23
2018-09-30T00:17:20.274Z,101242.05
2018-09-30T00:18:23.744Z,101244.56
2018-09-30T00:19:27.227Z,101242.61
2018-09-30T00:20:30.683Z,101242.37
2018-09-30T00:21:34.137Z,101239.61
2018-09-30T00:22:37.584Z,101243.50
2018-09-30T00:23:46.484Z,101241.07
2018-09-30T00:24:55.117Z,101237.02
2018-09-30T00:27:05.669Z,101235.62
2018-09-30T00:28:09.097Z,101236.03
2018-09-30T00:29:12.564Z,101238.55
2018-09-30T00:30:16.039Z,101236.92
2018-09-30T00:31:19.542Z,101234.73
2018-09-30T00:32:22.957Z,101239.16
2018-09-30T00:33:26.364Z,101238.11
2018-09-30T00:34:30.628Z,101232.42
2018-09-30T00:35:34.067Z,101239.08
2018-09-30T00:36:37.486Z,101236.89
2018-09-30T00:37:40.942Z,101233.64
2018-09-30T00:38:44.425Z,101227.63
2018-09-30T00:39:47.861Z,101232.34
2018-09-30T00:40:51.399Z,101229.58
2018-09-30T00:41:55.130Z,101221.67
2018-09-30T00:42:58.685Z,101221.38
2018-09-30T00:44:02.137Z,101228.57
2018-09-30T00:45:05.631Z,101226.95
2018-09-30T00:46:09.257Z,101213.52
2018-09-30T00:47:12.687Z,101220.09
2018-09-30T00:48:16.165Z,101210.77
2018-09-30T00:49:19.588Z,101212.14
2018-09-30T00:50:23.088Z,101207.52
2018-09-30T00:51:26.495Z,101200.38
2018-09-30T00:52:29.913Z,101200.70
2018-09-30T00:53:33.392Z,101195.26
2018-09-30T00:54:36.852Z,101198.26
2018-09-30T00:55:40.337Z,101188.73
2018-09-30T00:56:44.050Z,101196.39
2018-09-30T00:57:47.512Z,101195.02
2018-09-30T00:58:50.927Z,101198.91
2018-09-30T00:59:54.383Z,101188.97
2018-09-30T01:00:57.840Z,101181.59
2018-09-30T01:02:01.276Z,101179.97
2018-09-30T01:03:04.720Z,101178.66
2018-09-30T01:04:08.487Z,101180.61
2018-09-30T01:05:11.953Z,101175.66
2018-09-30T01:06:15.390Z,101177.85
2018-09-30T01:07:18.817Z,101174.04
2018-09-30T01:08:22.251Z,101176.23
2018-09-30T01:09:25.652Z,101170.55
2018-09-30T01:10:29.056Z,101171.00
2018-09-30T01:11:32.550Z,101168.89
2018-09-30T01:12:35.999Z,101164.62
2018-09-30T01:13:39.441Z,101164.73
2018-09-30T01:14:42.893Z,101165.38
2018-09-30T01:15:46.317Z,101163.55
2018-09-30T01:16:49.793Z,101156.81
2018-09-30T01:17:53.217Z,101162.00
2018-09-30T01:18:56.628Z,101157.45
2018-09-30T01:20:00.040Z,101150.70
2018-09-30T01:21:03.486Z,101156.75
2018-09-30T01:22:06.991Z,101160.56
2018-09-30T01:23:10.405Z,101155.77
2018-09-30T01:24:13.861Z,101154.14
2018-09-30T01:25:17.307Z,101150.25
2018-09-30T01:26:20.719Z,101157.14
2018-09-30T01:27:24.151Z,101144.72
2018-09-30T01:28:27.574Z,101154.87
2018-09-30T01:29:31.016Z,101152.67
2018-09-30T01:30:34.445Z,101150.48
2018-09-30T01:31:37.823Z,101158.77
2018-09-30T01:32:41.238Z,101151.38
2018-09-30T01:33:44.727Z,101150.57
2018-09-30T01:34:48.244Z,101145.86
2018-09-30T01:35:52.677Z,101139.05
2018-09-30T01:36:56.102Z,101143.52
2018-09-30T01:37:59.523Z,101142.13
2018-09-30T01:39:03.858Z,101137.72
2018-09-30T01:40:07.602Z,101134.39
2018-09-30T01:41:11.057Z,101139.66
2018-09-30T01:42:14.427Z,101126.77
2018-09-30T01:43:17.911Z,101128.14
2018-09-30T01:44:21.343Z,101126.28
2018-09-30T01:45:24.761Z,101127.17
2018-09-30T01:46:28.239Z,101124.74
2018-09-30T01:47:31.657Z,101131.97
2018-09-30T01:48:35.104Z,101130.02
2018-09-30T01:49:38.543Z,101117.69
2018-09-30T01:50:41.973Z,101118.83
2018-09-30T01:51:45.422Z,101122.45
2018-09-30T01:52:54.887Z,101114.73
2018-09-30T01:53:58.311Z,101111.81
2018-09-30T01:55:01.776Z,101115.95
2018-09-30T01:56:05.207Z,101114.17
2018-09-30T01:57:08.649Z,101112.55
2018-09-30T01:58:12.066Z,101117.83
2018-09-30T01:59:15.545Z,101112.63
2018-09-30T02:00:19.453Z,101107.44
2018-09-30T02:01:22.894Z,101103.41
2018-09-30T02:02:26.263Z,101100.41
2018-09-30T02:03:29.662Z,101105.03
2018-09-30T02:04:33.172Z,101110.30
2018-09-30T02:05:36.611Z,101106.25
2018-09-30T02:06:40.027Z,101102.68
2018-09-30T02:07:43.507Z,101103.01
2018-09-30T02:08:46.937Z,101104.70
2018-09-30T02:09:50.440Z,101105.84
2018-09-30T02:10:53.866Z,101103.66
2018-09-30T02:11:57.276Z,101108.12
2018-09-30T02:13:00.721Z,101102.89
2018-09-30T02:14:04.141Z,101106.22
2018-09-30T02:15:07.685Z,101105.98
2018-09-30T02:16:11.135Z,101107.69
2018-09-30T02:17:14.555Z,101101.36
2018-09-30T02:18:18.016Z,101103.30
2018-09-30T02:19:21.449Z,101101.27
2018-09-30T02:20:24.886Z,101096.19
2018-09-30T02:21:28.333Z,101097.16
2018-09-30T02:22:31.784Z,101094.27
2018-09-30T02:23:35.196Z,101091.37
2018-09-30T02:24:38.622Z,101088.36
2018-09-30T02:25:42.125Z,101092.03
2018-09-30T02:26:45.634Z,101088.05
2018-09-30T02:27:49.097Z,101089.59
2018-09-30T02:28:52.594Z,101092.50
2018-09-30T02:29:56.004Z,101086.98
2018-09-30T02:30:59.462Z,101086.03
2018-09-30T02:32:02.915Z,101088.13
2018-09-30T02:33:06.391Z,101087.89
2018-09-30T02:34:09.857Z,101087.80
2018-09-30T02:35:13.266Z,101088.37
2018-09-30T02:36:16.765Z,101087.23
2018-09-30T02:37:20.201Z,101091.37
2018-09-30T02:38:23.643Z,101091.94
2018-09-30T02:39:27.075Z,101092.52
2018-09-30T02:40:30.498Z,101081.55
2018-09-30T02:41:33.970Z,101093.08
2018-09-30T02:42:37.454Z,101092.84
2018-09-30T02:43:41.095Z,101086.84
2018-09-30T02:44:44.573Z,101090.73
2018-09-30T02:45:48.038Z,101087.17
2018-09-30T02:46:51.489Z,101087.46
2018-09-30T02:47:54.922Z,101091.94
2018-09-30T02:48:58.339Z,101087.31
2018-09-30T02:50:01.785Z,101084.87
2018-09-30T02:51:05.366Z,101090.97
2018-09-30T02:52:08.763Z,101088.78
2018-09-30T02:53:12.216Z,101078.96
2018-09-30T02:54:15.634Z,101084.81
2018-09-30T02:55:19.035Z,101081.23
2018-09-30T02:56:22.504Z,101086.52
2018-09-30T02:57:25.959Z,101082.13
2018-09-30T02:58:29.354Z,101076.91
2018-09-30T02:59:32.780Z,101075.86
2018-09-30T03:00:36.215Z,101079.76
2018-09-30T03:01:39.720Z,101080.66
2018-09-30T03:02:43.137Z,101072.38
2018-09-30T03:03:46.550Z,101070.51
2018-09-30T03:04:49.994Z,101066.12
2018-09-30T03:05:53.395Z,101065.65
2018-09-30T03:07:02.074Z,101059.31
2018-09-30T03:08:10.927Z,101059.89
2018-09-30T03:09:16.148Z,101055.27
2018-09-30T03:10:19.585Z,101054.45
2018-09-30T03:11:23.068Z,101054.75
2018-09-30T03:12:26.554Z,101054.27
2018-09-30T03:13:29.974Z,101054.51
2018-09-30T03:14:33.399Z,101057.31
2018-09-30T03:15:36.841Z,101050.99
2018-09-30T03:16:40.451Z,101046.61
2018-09-30T03:17:43.933Z,101043.05
2018-09-30T03:18:47.347Z,101044.75
2018-09-30T03:19:50.847Z,101043.13
2018-09-30T03:20:54.263Z,101039.56
2018-09-30T03:21:57.705Z,101035.98
2018-09-30T03:23:01.145Z,101032.42
2018-09-30T03:24:04.589Z,101030.23
2018-09-30T03:25:08.009Z,101031.13
2018-09-30T03:26:11.430Z,101031.13
2018-09-30T03:27:14.847Z,101030.80
2018-09-30T03:28:18.300Z,101034.38
2018-09-30T03:29:21.768Z,101030.76
2018-09-30T03:30:25.185Z,101026.45
2018-09-30T03:31:28.635Z,101022.95
2018-09-30T03:32:32.053Z,101024.18
2018-09-30T03:33:35.519Z,101027.81
2018-09-30T03:34:38.981Z,101024.30
2018-09-30T03:35:42.401Z,101018.16
2018-09-30T03:36:45.876Z,101023.25
2018-09-30T03:37:49.315Z,101020.41
2018-09-30T03:38:52.773Z,101022.74
2018-09-30T03:39:56.188Z,101023.80
2018-09-30T03:40:59.661Z,101019.35
2018-09-30T03:42:03.148Z,101017.41
2018-09-30T03:43:06.635Z,101017.41
2018-09-30T03:44:10.083Z,101015.93
2018-09-30T03:45:13.535Z,101012.36
2018-09-30T03:46:16.999Z,101008.55
2018-09-30T03:47:20.420Z,101008.31
2018-09-30T03:48:23.869Z,101001.47
2018-09-30T03:49:27.266Z,101005.61
2018-09-30T03:50:30.724Z,101011.70
2018-09-30T03:51:34.154Z,101017.31
2018-09-30T03:52:37.585Z,101013.17
2018-09-30T03:53:41.021Z,101020.98
2018-09-30T03:54:44.456Z,101017.16
2018-09-30T03:55:47.875Z,101017.50
2018-09-30T03:56:51.276Z,101014.83
2018-09-30T03:57:54.672Z,101012.94
2018-09-30T03:58:58.116Z,101011.08
2018-09-30T04:00:01.783Z,101013.02
2018-09-30T04:01:05.239Z,101010.59
2018-09-30T04:02:08.686Z,101013.69
2018-09-30T04:03:12.071Z,101008.25
2018-09-30T04:04:15.508Z,101009.16
2018-09-30T04:05:18.957Z,101005.91
2018-09-30T04:06:22.364Z,101008.67
2018-09-30T04:07:25.796Z,101007.92
2018-09-30T04:08:29.207Z,101001.34
2018-09-30T04:09:32.733Z,101003.39
2018-09-30T04:10:36.110Z,101003.48
2018-09-30T04:11:39.552Z,100999.09
2018-09-30T04:12:42.990Z,101006.33
2018-09-30T04:13:46.400Z,101003.89
2018-09-30T04:14:49.803Z,100997.66
2018-09-30T04:15:53.245Z,100993.81
2018-09-30T04:16:56.740Z,100995.19
2018-09-30T04:18:00.140Z,100985.44
2018-09-30T04:19:03.624Z,100993.87
2018-09-30T04:20:07.111Z,100989.48
2018-09-30T04:21:10.564Z,100991.20
2018-09-30T04:22:13.998Z,100984.72
2018-09-30T04:23:17.454Z,100987.62
2018-09-30T04:24:20.959Z,100983.81
2018-09-30T04:25:24.402Z,100983.58
2018-09-30T04:26:27.822Z,100982.77
2018-09-30T04:27:31.240Z,100981.72
2018-09-30T04:28:34.697Z,100980.09
2018-09-30T04:29:38.163Z,100980.91
2018-09-30T04:30:41.622Z,100976.77
2018-09-30T04:31:45.029Z,100976.77
2018-09-30T04:32:48.492Z,100978.06
2018-09-30T04:33:51.973Z,100974.08
2018-09-30T04:34:55.373Z,100977.26
2018-09-30T04:35:58.816Z,100975.48
2018-09-30T04:37:02.465Z,100973.60
2018-09-30T04:38:06.201Z,100972.55
2018-09-30T04:39:10.081Z,100963.62
2018-09-30T04:40:13.503Z,100969.77
2018-09-30T04:41:16.958Z,100970.48
2018-09-30T04:42:20.440Z,100962.95
2018-09-30T04:43:23.895Z,100965.38
2018-09-30T04:44:27.321Z,100969.19
2018-09-30T04:45:30.735Z,100968.05
2018-09-30T04:46:34.187Z,100969.81
2018-09-30T04:47:37.594Z,100963.48
2018-09-30T04:48:41.007Z,100954.72
2018-09-30T04:49:44.444Z,100961.77
2018-09-30T04:50:47.910Z,100959.25
2018-09-30T04:51:51.335Z,100966.72
2018-09-30T04:52:54.774Z,100966.72
2018-09-30T04:53:58.188Z,100967.29
2018-09-30T04:55:01.602Z,100966.81
2018-09-30T04:56:05.032Z,100970.95
2018-09-30T04:57:08.489Z,100968.52
2018-09-30T04:58:11.900Z,100964.72
2018-09-30T04:59:15.408Z,100964.48
2018-09-30T05:00:18.848Z,100969.42
2018-09-30T05:01:22.298Z,100963.43
2018-09-30T05:02:25.742Z,100970.42
2018-09-30T05:03:29.199Z,100971.53
2018-09-30T05:04:32.659Z,100974.62
2018-09-30T05:05:36.102Z,100967.48
2018-09-30T05:06:39.520Z,100971.05
2018-09-30T05:07:42.955Z,100969.77
2018-09-30T05:08:46.395Z,100968.95
2018-09-30T05:09:49.829Z,100964.91
2018-09-30T05:10:53.247Z,100975.70
2018-09-30T05:11:56.666Z,100973.28
2018-09-30T05:13:00.086Z,100971.41
2018-09-30T05:14:03.482Z,100975.89
2018-09-30T05:15:06.954Z,100981.70
2018-09-30T05:16:10.463Z,100969.62
2018-09-30T05:17:13.801Z,100974.08
2018-09-30T05:18:17.234Z,100972.22
2018-09-30T05:19:20.679Z,100970.03
2018-09-30T05:20:24.144Z,100965.50
2018-09-30T05:21:27.638Z,100972.64
2018-09-30T05:22:31.063Z,100974.02
2018-09-30T05:23:34.496Z,100971.11
2018-09-30T05:24:37.945Z,100973.88
2018-09-30T05:25:41.367Z,100974.44
2018-09-30T05:26:44.819Z,100975.31
2018-09-30T05:27:48.279Z,100975.06
2018-09-30T05:28:51.752Z,100970.42
2018-09-30T05:29:55.197Z,100969.04
2018-09-30T05:30:58.687Z,100970.75
2018-09-30T05:32:02.142Z,100965.47
2018-09-30T05:33:05.582Z,100967.98
2018-09-30T05:34:09.029Z,100967.51
2018-09-30T05:35:12.446Z,100974.97
2018-09-30T05:36:15.871Z,100972.21
2018-09-30T05:37:19.366Z,100972.37
2018-09-30T05:38:22.739Z,100967.36
2018-09-30T05:39:26.195Z,100969.55
2018-09-30T05:40:29.640Z,100965.02
2018-09-30T05:41:33.084Z,100959.33
2018-09-30T05:42:36.524Z,100963.28
2018-09-30T05:43:39.981Z,100966.80
2018-09-30T05:44:44.096Z,100969.95
2018-09-30T05:45:47.549Z,100963.77
2018-09-30T05:46:51.035Z,100968.38
2018-09-30T05:47:54.457Z,100955.81
2018-09-30T05:48:57.921Z,100957.43
2018-09-30T05:50:01.347Z,100953.44
2018-09-30T05:51:04.778Z,100957.00
2018-09-30T05:52:08.260Z,100952.30
2018-09-30T05:53:11.709Z,100953.20
2018-09-30T05:54:15.352Z,100955.95
2018-09-30T05:55:18.755Z,100956.53
2018-09-30T05:56:22.196Z,100957.91
2018-09-30T05:57:25.661Z,100959.52
2018-09-30T05:58:29.081Z,100956.05
2018-09-30T05:59:32.517Z,100962.71
2018-09-30T06:00:35.961Z,100958.57
2018-09-30T06:01:39.624Z,100956.92
2018-09-30T06:02:43.047Z,100956.44
2018-09-30T06:03:46.669Z,100966.67
2018-09-30T06:04:50.150Z,100952.48
2018-09-30T06:05:53.572Z,100961.00
2018-09-30T06:06:56.989Z,100969.62
2018-09-30T06:08:00.461Z,100964.42
2018-09-30T06:09:05.153Z,100961.75
2018-09-30T06:10:08.624Z,100964.28
2018-09-30T06:11:12.078Z,100958.52
2018-09-30T06:12:15.510Z,100957.77
2018-09-30T06:13:18.941Z,100952.09
2018-09-30T06:14:22.453Z,100952.09
2018-09-30T06:15:25.882Z,100948.05
2018-09-30T06:16:29.332Z,100953.33
2018-09-30T06:17:32.812Z,100966.31
2018-09-30T06:18:36.233Z,100962.50
2018-09-30T06:19:39.791Z,100962.84
2018-09-30T06:20:43.229Z,100962.02
2018-09-30T06:21:46.707Z,100966.73
2018-09-30T06:22:50.181Z,100968.68
2018-09-30T06:23:53.632Z,100963.47
2018-09-30T06:24:57.087Z,100973.36
2018-09-30T06:26:00.604Z,100970.36
2018-09-30T06:27:04.047Z,100968.74
2018-09-30T06:28:07.521Z,100967.09
2018-09-30T06:29:11.118Z,100965.47
2018-09-30T06:30:14.599Z,100962.95
2018-09-30T06:31:18.020Z,100970.75
2018-09-30T06:32:21.463Z,100970.75
2018-09-30T06:33:24.906Z,100964.90
2018-09-30T06:34:28.383Z,100959.95
2018-09-30T06:35:31.824Z,100961.78
2018-09-30T06:36:35.323Z,100965.02
2018-09-30T06:37:38.746Z,100965.41
2018-09-30T06:38:42.210Z,100967.19
2018-09-30T06:39:45.713Z,100964.58
2018-09-30T06:40:49.164Z,100954.05
2018-09-30T06:41:52.649Z,100963.62
2018-09-30T06:42:56.080Z,100967.03
2018-09-30T06:43:59.568Z,100967.12
2018-09-30T06:45:03.203Z,100970.55
2018-09-30T06:46:06.852Z,100974.73
2018-09-30T06:47:10.350Z,100963.94
2018-09-30T06:48:13.844Z,100971.89
2018-09-30T06:49:17.315Z,100969.22
2018-09-30T06:50:20.887Z,100960.03
2018-09-30T06:51:25.243Z,100962.55
2018-09-30T06:52:28.753Z,100960.69
2018-09-30T06:53:32.222Z,100965.48
2018-09-30T06:54:35.705Z,100968.89
2018-09-30T06:55:39.153Z,100967.42
2018-09-30T06:56:42.752Z,100962.41
2018-09-30T06:57:46.289Z,100960.04
2018-09-30T06:58:49.828Z,100966.45
2018-09-30T06:59:53.344Z,100968.72
2018-09-30T07:00:56.781Z,100967.19
2018-09-30T07:02:00.285Z,100973.84
2018-09-30T07:03:03.936Z,100969.84
2018-09-30T07:04:07.523Z,100963.59
2018-09-30T07:05:11.006Z,100955.95
2018-09-30T07:06:14.853Z,100972.12
2018-09-30T07:07:18.309Z,100970.55
2018-09-30T07:08:21.767Z,100965.36
2018-09-30T07:09:25.201Z,100964.55
2018-09-30T07:10:28.628Z,100966.50
2018-09-30T07:11:32.200Z,100964.55
2018-09-30T07:12:35.730Z,100963.98
2018-09-30T07:13:39.256Z,100960.66
2018-09-30T07:14:42.674Z,100963.09
2018-09-30T07:15:46.159Z,100964.22
2018-09-30T07:16:49.615Z,100964.47
2018-09-30T07:17:53.058Z,100965.36
2018-09-30T07:18:56.487Z,100966.73
2018-09-30T07:19:59.931Z,100967.55
2018-09-30T07:21:03.455Z,100972.01
2018-09-30T07:22:06.890Z,100969.01
2018-09-30T07:23:10.667Z,100971.20
2018-09-30T07:24:14.138Z,100964.88
2018-09-30T07:25:17.750Z,100967.62
2018-09-30T07:26:21.232Z,100966.25
2018-09-30T07:27:24.760Z,100973.14
2018-09-30T07:28:28.209Z,100968.77
2018-09-30T07:29:31.644Z,100970.47
2018-09-30T07:30:35.075Z,100971.84
2018-09-30T07:31:38.526Z,100968.28
2018-09-30T07:32:42.064Z,100970.23
2018-09-30T07:33:45.541Z,100976.06
2018-09-30T07:34:49.173Z,100975.25
2018-09-30T07:35:52.654Z,100968.69
2018-09-30T07:36:56.099Z,100971.44
2018-09-30T07:37:59.523Z,100968.44
2018-09-30T07:39:03.045Z,100961.92
2018-09-30T07:40:06.506Z,100963.25
2018-09-30T07:41:09.963Z,100963.79
2018-09-30T07:42:13.452Z,100958.28
2018-09-30T07:43:17.018Z,100964.68
2018-09-30T07:44:20.496Z,100965.58
2018-09-30T07:45:23.969Z,100961.77
2018-09-30T07:46:27.417Z,100958.28
2018-09-30T07:47:30.828Z,100964.11
2018-09-30T07:48:34.495Z,100960.03
2018-09-30T07:49:37.895Z,100954.56
2018-09-30T07:50:41.356Z,100956.59
2018-09-30T07:51:44.786Z,100963.80
2018-09-30T07:52:48.360Z,100958.37
2018-09-30T07:53:51.811Z,100957.56
2018-09-30T07:54:55.241Z,100951.89
2018-09-30T07:55:58.730Z,100957.39
2018-09-30T07:57:02.154Z,100960.39
2018-09-30T07:58:05.613Z,100959.83
2018-09-30T07:59:09.355Z,100956.26
2018-09-30T08:00:12.782Z,100958.61
2018-09-30T08:01:16.334Z,100959.98
2018-09-30T08:02:20.353Z,100961.21
2018-09-30T08:03:23.903Z,100954.56
2018-09-30T08:04:27.352Z,100955.70
2018-09-30T08:05:30.774Z,100949.95
2018-09-30T08:06:34.229Z,100953.84
2018-09-30T08:07:37.640Z,100951.97
2018-09-30T08:08:41.130Z,100958.37
2018-09-30T08:09:44.569Z,100948.00
2018-09-30T08:10:48.037Z,100953.83
2018-09-30T08:11:51.457Z,100955.53
2018-09-30T08:12:54.869Z,100954.44
2018-09-30T08:13:58.412Z,100952.82
2018-09-30T08:15:01.855Z,100956.95
2018-09-30T08:16:05.302Z,100950.06
2018-09-30T08:17:08.691Z,100950.63
2018-09-30T08:18:12.141Z,100949.26
2018-09-30T08:19:15.618Z,100943.50
2018-09-30T08:20:19.055Z,100949.26
2018-09-30T08:21:22.603Z,100943.75
2018-09-30T08:22:26.037Z,100944.07
2018-09-30T08:23:29.517Z,100940.19
2018-09-30T08:24:33.010Z,100936.05
2018-09-30T08:25:36.473Z,100942.94
2018-09-30T08:26:40.050Z,100944.88
2018-09-30T08:27:43.593Z,100941.88
2018-09-30T08:28:47.158Z,100945.45
2018-09-30T08:29:50.796Z,100946.34
2018-09-30T08:30:54.332Z,100942.52
2018-09-30T08:31:57.740Z,100944.79
2018-09-30T08:33:01.153Z,100949.81
2018-09-30T08:34:04.637Z,100942.68
2018-09-30T08:35:08.151Z,100942.44
2018-09-30T08:36:12.707Z,100947.99
2018-09-30T08:37:20.339Z,100950.50
2018-09-30T08:38:29.836Z,100953.01
2018-09-30T08:39:33.307Z,100953.58
2018-09-30T08:40:42.171Z,100951.95
2018-09-30T08:41:45.665Z,100946.77
2018-09-30T08:42:49.225Z,100944.58
2018-09-30T08:43:52.710Z,100944.58
2018-09-30T08:44:56.258Z,100945.71
2018-09-30T08:46:00.288Z,100943.52
2018-09-30T08:47:03.725Z,100938.58
2018-09-30T08:48:07.176Z,100939.96
2018-09-30T08:49:10.719Z,100942.72
2018-09-30T08:50:14.456Z,100936.39
2018-09-30T08:51:18.094Z,100945.47
2018-09-30T08:52:21.573Z,100937.77
2018-09-30T08:53:25.449Z,100938.83
2018-09-30T08:54:28.971Z,100937.45
2018-09-30T08:55:32.414Z,100938.83
2018-09-30T08:56:35.907Z,100938.27
2018-09-30T08:57:39.406Z,100941.83
2018-09-30T08:58:42.820Z,100947.58
2018-09-30T08:59:46.320Z,100943.77
2018-09-30T09:00:50.166Z,100943.20
2018-09-30T09:01:53.785Z,100939.88
2018-09-30T09:02:57.267Z,100941.50
2018-09-30T09:04:00.712Z,100945.63
2018-09-30T09:05:04.219Z,100939.56
2018-09-30T09:06:07.640Z,100935.44
2018-09-30T09:07:11.257Z,100929.12
2018-09-30T09:08:14.712Z,100930.73
2018-09-30T09:09:18.179Z,100929.36
2018-09-30T09:10:21.661Z,100929.60
2018-09-30T09:11:25.266Z,100927.41
2018-09-30T09:12:28.744Z,100923.28
2018-09-30T09:13:32.268Z,100924.91
2018-09-30T09:14:35.725Z,100925.16
2018-09-30T09:15:39.282Z,100927.41
2018-09-30T09:16:42.939Z,100932.11
2018-09-30T09:17:47.351Z,100932.68
2018-09-30T09:18:50.983Z,100929.12
2018-09-30T09:19:54.584Z,100925.55
2018-09-30T09:20:58.113Z,100925.23
2018-09-30T09:22:01.597Z,100921.91
2018-09-30T09:23:05.063Z,100923.53
2018-09-30T09:24:08.586Z,100921.02
2018-09-30T09:25:12.078Z,100917.70
2018-09-30T09:26:15.567Z,100914.95
2018-09-30T09:27:19.309Z,100921.78
2018-09-30T09:28:22.773Z,100924.30
2018-09-30T09:29:26.204Z,100923.97
2018-09-30T09:30:29.646Z,100924.53
2018-09-30T09:31:33.192Z,100922.59
2018-09-30T09:32:37.222Z,100922.27
2018-09-30T09:33:40.673Z,100923.89
2018-09-30T09:34:44.113Z,100920.89
2018-09-30T09:35:47.901Z,100926.89
2018-09-30T09:36:51.339Z,100924.14
2018-09-30T09:37:54.866Z,100918.06
2018-09-30T09:38:58.255Z,100915.88
2018-09-30T09:40:01.699Z,100913.94
2018-09-30T09:41:05.338Z,100915.31
2018-09-30T09:42:08.884Z,100913.12
2018-09-30T09:43:12.325Z,100907.86
2018-09-30T09:44:15.860Z,100910.61
2018-09-30T09:45:19.354Z,100908.98
2018-09-30T09:46:22.876Z,100912.55
2018-09-30T09:47:26.331Z,100907.61
2018-09-30T09:48:29.750Z,100910.37
2018-09-30T09:49:33.252Z,100904.62
2018-09-30T09:50:36.866Z,100910.94
2018-09-30T09:51:40.985Z,100908.75
2018-09-30T09:52:44.525Z,100905.42
2018-09-30T09:53:47.960Z,100900.48
2018-09-30T09:54:51.420Z,100896.59
2018-09-30T09:55:54.867Z,100893.03
2018-09-30T09:56:58.300Z,100888.09
2018-09-30T09:58:01.829Z,100888.09
2018-09-30T09:59:05.506Z,100887.84
2018-09-30T10:00:09.792Z,100887.84
2018-09-30T10:01:13.283Z,100883.16
2018-09-30T10:02:16.745Z,100885.91
2018-09-30T10:03:20.195Z,100882.91
2018-09-30T10:04:23.619Z,100882.91
2018-09-30T10:05:27.083Z,100881.77
2018-09-30T10:06:30.517Z,100874.08
2018-09-30T10:07:34.062Z,100875.45
2018-09-30T10:08:37.548Z,100879.34
2018-09-30T10:09:40.994Z,100875.22
2018-09-30T10:10:45.419Z,100874.64
2018-09-30T10:11:48.982Z,100876.02
2018-09-30T10:12:52.457Z,100869.47
2018-09-30T10:13:55.885Z,100869.70
2018-09-30T10:14:59.290Z,100876.02
2018-09-30T10:16:02.724Z,100871.08
2018-09-30T10:17:06.217Z,100871.65
2018-09-30T10:18:09.723Z,100866.14
2018-09-30T10:19:13.254Z,100863.95
2018-09-30T10:20:16.713Z,100862.02
2018-09-30T10:21:20.174Z,100862.02
2018-09-30T10:22:23.669Z,100860.06
2018-09-30T10:23:27.114Z,100855.94
2018-09-30T10:24:31.033Z,100857.31
2018-09-30T10:25:34.496Z,100854.56
2018-09-30T10:26:37.939Z,100853.75
2018-09-30T10:27:41.409Z,100859.26
2018-09-30T10:28:44.831Z,100859.26
2018-09-30T10:29:48.253Z,100854.56
2018-09-30T10:30:51.975Z,100849.05
2018-09-30T10:31:55.373Z,100847.11
2018-09-30T10:32:58.853Z,100841.60
2018-09-30T10:34:02.390Z,100840.22
2018-09-30T10:35:06.047Z,100840.80
2018-09-30T10:36:09.545Z,100842.41
2018-09-30T10:37:13.137Z,100840.47
2018-09-30T10:38:16.611Z,100841.03
2018-09-30T10:39:20.444Z,100837.71
2018-09-30T10:40:23.862Z,100836.91
2018-09-30T10:41:27.286Z,100838.28
2018-09-30T10:42:31.355Z,100834.15
2018-09-30T10:43:34.820Z,100834.15
2018-09-30T10:44:38.211Z,100838.77
2018-09-30T10:45:41.632Z,100834.39
2018-09-30T10:46:45.622Z,100839.58
2018-09-30T10:47:49.167Z,100836.58
2018-09-30T10:48:52.579Z,100833.26
2018-09-30T10:49:56.025Z,100825.00
2018-09-30T10:50:59.456Z,100830.27
2018-09-30T10:52:03.043Z,100831.08
2018-09-30T10:53:06.536Z,100831.88
2018-09-30T10:54:10.005Z,100835.45
2018-09-30T10:55:13.494Z,100834.64
2018-09-30T10:56:16.936Z,100823.95
2018-09-30T10:57:20.389Z,100828.08
2018-09-30T10:58:23.857Z,100826.70
2018-09-30T10:59:27.405Z,100827.02
2018-09-30T11:00:30.969Z,100830.91
2018-09-30T11:01:34.476Z,100816.91
2018-09-30T11:02:37.932Z,100820.76
2018-09-30T11:03:41.473Z,100827.40
2018-09-30T11:04:44.937Z,100819.14
2018-09-30T11:05:48.490Z,100818.57
2018-09-30T11:06:51.896Z,100816.14
2018-09-30T11:07:55.344Z,100810.39
2018-09-30T11:08:58.812Z,100809.58
2018-09-30T11:10:02.663Z,100812.91
2018-09-30T11:11:06.553Z,100813.23
2018-09-30T11:12:09.997Z,100814.03
2018-09-30T11:13:13.408Z,100807.97
2018-09-30T11:14:16.893Z,100808.53
2018-09-30T11:15:20.359Z,100807.16
2018-09-30T11:16:23.943Z,100802.78
2018-09-30T11:17:27.384Z,100809.66
2018-09-30T11:18:30.874Z,100809.66
2018-09-30T11:19:34.336Z,100803.67
2018-09-30T11:20:37.769Z,100806.67
2018-09-30T11:21:41.186Z,100798.98
2018-09-30T11:22:44.883Z,100797.36
2018-09-30T11:23:48.352Z,100798.98
2018-09-30T11:24:51.965Z,100789.91
2018-09-30T11:25:55.528Z,100783.59
2018-09-30T11:26:58.954Z,100783.02
2018-09-30T11:28:02.538Z,100784.16
2018-09-30T11:29:06.670Z,100778.09
2018-09-30T11:30:10.117Z,100778.66
2018-09-30T11:31:13.528Z,100770.95
2018-09-30T11:32:17.195Z,100772.58
2018-09-30T11:33:20.658Z,100766.27
2018-09-30T11:34:24.118Z,100765.70
2018-09-30T11:35:27.574Z,100762.13
2018-09-30T11:36:31.104Z,100764.89
2018-09-30T11:37:34.555Z,100760.75
2018-09-30T11:38:38.141Z,100760.52
2018-09-30T11:39:41.588Z,100749.50
2018-09-30T11:40:45.230Z,100762.37
2018-09-30T11:41:48.904Z,100760.52
2018-09-30T11:42:52.683Z,100760.52
2018-09-30T11:43:56.128Z,100767.40
2018-09-30T11:44:59.873Z,100761.89
2018-09-30T11:46:03.552Z,100761.33
2018-09-30T11:47:07.054Z,100760.27
2018-09-30T11:48:10.525Z,100761.33
2018-09-30T11:49:13.999Z,100754.20
2018-09-30T11:50:17.430Z,100753.39
2018-09-30T11:51:20.993Z,100754.20
2018-09-30T11:52:24.386Z,100748.13
2018-09-30T11:53:27.799Z,100744.56
2018-09-30T11:54:31.222Z,100745.13
2018-09-30T11:55:34.637Z,100742.37
2018-09-30T11:56:38.031Z,100735.50
2018-09-30T11:57:41.467Z,100736.88
2018-09-30T11:58:44.893Z,100737.44
2018-09-30T11:59:48.313Z,100739.63
2018-09-30T12:00:51.771Z,100745.13
2018-09-30T12:01:55.175Z,100740.20
2018-09-30T12:02:58.624Z,100744.33
2018-09-30T12:04:02.065Z,100733.88
2018-09-30T12:05:05.615Z,100732.50
2018-09-30T12:06:09.044Z,100731.69